Terminal Aerodrome Forecast
Issued by NWS

Home | Current Version | Previous Version | Text Only | Print | Product List | Glossary On
Versions: 1 2 3 4 5 6 7 8 9 10 11 12 13 14
000
FTUS44 KEPZ 080539
TAFDMN
TAF
KDMN 080539Z 0806/0906 06008KT P6SM VCSH FEW080 SCT110 SCT250
     FM081900 25008KT P6SM SCT080 BKN110 BKN250
     FM090300 28006KT P6SM FEW080 SCT110 BKN250=

USA.gov is the U.S. government's official web portal to all federal, state and local government web resources and services.